Time;durP1;ratioP1;P1;durP2;ratioP2;P2;SDS_P1;SDS_P2;PMS_P1;PMS_P2;Temp;Humidity;BMP_temperature;BMP_pressure;BME280_temperature;BME280_humidity;BME280_pressure;Samples;Min_cycle;Max_cycle;Signal;HPM_P1;HPM_P2
2022/03/03 00:00:52;;;;;;;;;;;;;;;-0.75;60.40;96682.31;5010284;28;19961;-74
2022/03/03 00:03:18;;;;;;;;;;;;;;;-0.78;60.16;96685.13;5011314;28;19945;-73
2022/03/03 00:05:44;;;;;;;;;;;;;;;-0.82;60.56;96684.59;5008345;28;19964;-74
2022/03/03 00:08:09;;;;;;;;;;;;;;;-0.83;60.59;96680.41;5011151;28;20018;-73
2022/03/03 00:10:35;;;;;;;;;;;;;;;-0.85;60.65;96684.91;5005164;28;19977;-73
2022/03/03 00:13:01;;;;;;;;;;;;;;;-0.87;60.45;96684.22;5010695;28;20415;-73
2022/03/03 00:15:27;;;;;;;;;;;;;;;-0.91;60.91;96675.97;5008972;28;20012;-74
2022/03/03 00:17:53;;;;;;;;;;;;;;;-0.93;60.95;96687.34;4996949;28;20002;-73
2022/03/03 00:20:19;;;;;;;;;;;;;;;-0.94;60.62;96688.31;5010739;28;19959;-73
2022/03/03 00:22:45;;;;;;;;;;;;;;;-0.96;60.39;96685.06;5000404;28;20028;-73
2022/03/03 00:25:10;;;;;;;;;;;;;;;-0.97;60.65;96673.94;5004349;28;19961;-73
2022/03/03 00:27:36;;;;;;;;;;;;;;;-0.96;60.31;96670.44;5008184;28;19965;-73
2022/03/03 00:30:03;;;;;;;;;;;;;;;-0.96;60.20;96673.00;4991788;28;19954;-74
2022/03/03 00:32:28;;;;;;;;;;;;;;;-0.96;60.57;96669.63;4998659;28;19957;-73
2022/03/03 00:34:54;;;;;;;;;;;;;;;-0.98;60.70;96677.47;5002974;28;19979;-74
2022/03/03 00:37:21;;;;;;;;;;;;;;;-1.02;60.88;96676.13;4972505;28;19962;-73
2022/03/03 00:39:46;;;;;;;;;;;;;;;-1.05;60.79;96673.81;5006937;28;19959;-74
2022/03/03 00:42:12;;;;;;;;;;;;;;;-1.08;60.99;96677.50;5011164;28;19958;-73
2022/03/03 00:44:38;;;;;;;;;;;;;;;-1.11;60.99;96675.22;5005408;28;19974;-73
2022/03/03 00:47:04;;;;;;;;;;;;;;;-1.15;60.95;96680.78;5002528;28;20426;-73
2022/03/03 00:49:30;;;;;;;;;;;;;;;-1.21;61.07;96677.00;5000589;28;19954;-74
2022/03/03 00:51:56;;;;;;;;;;;;;;;-1.25;61.00;96673.88;5005626;28;20369;-73
2022/03/03 00:54:22;;;;;;;;;;;;;;;-1.27;61.03;96678.34;5005778;28;19950;-73
2022/03/03 00:56:48;;;;;;;;;;;;;;;-1.28;60.95;96675.91;5011033;28;19959;-73
2022/03/03 00:59:13;;;;;;;;;;;;;;;-1.31;61.34;96669.28;5001604;28;19954;-73
2022/03/03 01:01:39;;;;;;;;;;;;;;;-1.30;61.21;96677.81;5006086;28;19957;-73
2022/03/03 01:04:05;;;;;;;;;;;;;;;-1.34;61.05;96672.16;5004548;28;19954;-74
2022/03/03 01:06:31;;;;;;;;;;;;;;;-1.36;60.98;96676.63;5005847;28;20019;-73
2022/03/03 01:08:57;;;;;;;;;;;;;;;-1.40;61.26;96677.84;5008590;28;20351;-73
2022/03/03 01:11:23;;;;;;;;;;;;;;;-1.41;61.24;96677.97;4999012;28;20379;-73
2022/03/03 01:13:49;;;;;;;;;;;;;;;-1.44;61.83;96674.72;5015337;28;20015;-74
2022/03/03 01:16:14;;;;;;;;;;;;;;;-1.48;61.35;96668.22;4982653;28;19957;-73
2022/03/03 01:18:42;;;;;;;;;;;;;;;-1.48;60.88;96659.69;5015087;28;19965;-73
2022/03/03 01:21:08;;;;;;;;;;;;;;;-1.52;60.89;96656.59;5004329;28;20316;-73
2022/03/03 01:23:34;;;;;;;;;;;;;;;-1.51;61.16;96670.25;5007254;28;19961;-73
2022/03/03 01:26:00;;;;;;;;;;;;;;;-1.53;61.13;96664.47;5011846;28;19965;-73
2022/03/03 01:28:26;;;;;;;;;;;;;;;-1.55;61.63;96666.34;5006572;28;19950;-73
2022/03/03 01:30:51;;;;;;;;;;;;;;;-1.57;61.35;96657.97;4969275;28;20007;-73
2022/03/03 01:33:17;;;;;;;;;;;;;;;-1.61;61.13;96662.56;5006782;28;19960;-73
2022/03/03 01:35:43;;;;;;;;;;;;;;;-1.64;61.46;96660.25;4988371;28;19952;-73
2022/03/03 01:38:09;;;;;;;;;;;;;;;-1.66;62.03;96662.97;5006005;28;20008;-73
2022/03/03 01:40:35;;;;;;;;;;;;;;;-1.69;61.54;96657.28;5007118;28;19958;-73
2022/03/03 01:43:01;;;;;;;;;;;;;;;-1.72;61.68;96663.50;4989334;28;19966;-73
2022/03/03 01:45:27;;;;;;;;;;;;;;;-1.73;61.60;96663.63;5014718;28;19960;-74
2022/03/03 01:47:53;;;;;;;;;;;;;;;-1.78;61.66;96658.09;5014573;28;19971;-74
2022/03/03 01:50:18;;;;;;;;;;;;;;;-1.80;62.38;96655.66;4997241;28;19948;-73
2022/03/03 01:52:44;;;;;;;;;;;;;;;-1.82;63.07;96643.91;5014341;28;20009;-73
2022/03/03 01:55:10;;;;;;;;;;;;;;;-1.87;62.55;96652.00;5014438;28;19989;-73
2022/03/03 01:57:36;;;;;;;;;;;;;;;-1.89;62.55;96647.00;5014535;28;19942;-73
2022/03/03 02:00:04;;;;;;;;;;;;;;;-1.90;62.99;96640.22;4996731;28;19957;-73
2022/03/03 02:02:30;;;;;;;;;;;;;;;-1.91;62.73;96635.22;5014502;28;20322;-73
2022/03/03 02:04:56;;;;;;;;;;;;;;;-1.92;63.25;96625.91;5014553;28;19956;-73
2022/03/03 02:07:22;;;;;;;;;;;;;;;-1.93;61.92;96619.94;5014071;28;19974;-73
2022/03/03 02:09:47;;;;;;;;;;;;;;;-1.94;62.15;96610.59;5014314;28;20002;-73
2022/03/03 02:12:14;;;;;;;;;;;;;;;-1.95;62.69;96613.31;5014084;28;20007;-73
2022/03/03 02:14:43;;;;;;;;;;;;;;;-1.98;62.72;96611.00;5014198;28;19981;-73
2022/03/03 02:17:09;;;;;;;;;;;;;;;-2.00;63.56;96615.47;5013944;28;20390;-73
2022/03/03 02:19:35;;;;;;;;;;;;;;;-2.02;62.88;96615.59;5014387;28;20011;-73
2022/03/03 02:22:02;;;;;;;;;;;;;;;-2.05;63.05;96610.75;5014010;28;20399;-73
2022/03/03 02:24:27;;;;;;;;;;;;;;;-2.06;63.42;96619.38;5014218;28;19950;-73
2022/03/03 02:26:53;;;;;;;;;;;;;;;-2.09;62.79;96609.38;5013791;28;20010;-73
2022/03/03 02:29:19;;;;;;;;;;;;;;;-2.11;62.84;96609.50;5013853;28;19958;-74
2022/03/03 02:31:45;;;;;;;;;;;;;;;-2.13;62.87;96616.53;5013902;28;20400;-73
2022/03/03 02:34:11;;;;;;;;;;;;;;;-2.11;62.44;96611.28;5013702;28;19947;-73
2022/03/03 02:36:37;;;;;;;;;;;;;;;-2.15;63.31;96613.31;5013989;28;20306;-73
2022/03/03 02:39:04;;;;;;;;;;;;;;;-2.16;63.67;96616.00;5013941;28;19949;-73
2022/03/03 02:41:31;;;;;;;;;;;;;;;-2.19;63.88;96616.28;5013973;28;19964;-73
2022/03/03 02:43:57;;;;;;;;;;;;;;;-2.22;63.17;96614.00;5013795;28;19979;-73
2022/03/03 02:46:23;;;;;;;;;;;;;;;-2.25;63.33;96612.47;5001233;28;19972;-73
2022/03/03 02:48:49;;;;;;;;;;;;;;;-2.27;63.33;96619.50;5004606;28;19958;-73
2022/03/03 02:51:15;;;;;;;;;;;;;;;-2.30;63.32;96615.44;5003012;28;19956;-73
2022/03/03 02:53:41;;;;;;;;;;;;;;;-2.31;63.44;96615.56;5005051;28;19952;-73
2022/03/03 02:56:07;;;;;;;;;;;;;;;-2.32;63.69;96629.38;5007832;28;19989;-73
2022/03/03 02:58:33;;;;;;;;;;;;;;;-2.34;63.78;96621.78;5015923;28;20399;-73
2022/03/03 03:01:00;;;;;;;;;;;;;;;-2.35;63.58;96630.47;5010217;28;19975;-73
2022/03/03 03:03:26;;;;;;;;;;;;;;;-2.35;63.28;96624.50;5007518;28;20407;-73
2022/03/03 03:05:52;;;;;;;;;;;;;;;-2.35;63.45;96619.34;5005132;28;19949;-74
2022/03/03 03:08:18;;;;;;;;;;;;;;;-2.36;63.33;96620.31;5011443;28;20328;-73
2022/03/03 03:10:44;;;;;;;;;;;;;;;-2.36;63.24;96612.59;5009423;28;20329;-73
2022/03/03 03:13:14;;;;;;;;;;;;;;;-2.38;63.50;96610.16;5000222;28;20032;-73
2022/03/03 03:15:42;;;;;;;;;;;;;;;-2.40;63.47;96613.81;4989985;28;19970;-73
2022/03/03 03:18:11;;;;;;;;;;;;;;;-2.43;63.52;96606.41;4983390;28;19955;-73
2022/03/03 03:20:38;;;;;;;;;;;;;;;-2.45;63.91;96612.47;5009751;28;19953;-73
2022/03/03 03:23:04;;;;;;;;;;;;;;;-2.48;64.20;96599.06;5007379;28;19944;-73
2022/03/03 03:25:30;;;;;;;;;;;;;;;-2.50;63.51;96601.78;5010292;28;20000;-74
2022/03/03 03:27:55;;;;;;;;;;;;;;;-2.51;63.50;96594.22;5007765;28;19971;-73
2022/03/03 03:30:21;;;;;;;;;;;;;;;-2.53;64.21;96591.75;4984999;28;20011;-73
2022/03/03 03:32:47;;;;;;;;;;;;;;;-2.55;63.72;96595.41;5009024;28;19955;-73
2022/03/03 03:35:13;;;;;;;;;;;;;;;-2.59;63.75;96594.84;5007170;28;20041;-73
2022/03/03 03:37:39;;;;;;;;;;;;;;;-2.62;63.64;96595.13;5007522;28;20401;-73
2022/03/03 03:40:06;;;;;;;;;;;;;;;-2.63;63.76;96597.81;5006415;28;19943;-73
2022/03/03 03:42:32;;;;;;;;;;;;;;;-2.66;64.13;96597.16;5002750;28;19954;-73
2022/03/03 03:44:58;;;;;;;;;;;;;;;-2.66;64.00;96583.50;5005001;28;20320;-73
2022/03/03 03:47:23;;;;;;;;;;;;;;;-2.68;64.14;96583.63;5005472;28;19975;-74
2022/03/03 03:49:49;;;;;;;;;;;;;;;-2.67;63.48;96582.69;5003053;28;20424;-73
2022/03/03 03:52:15;;;;;;;;;;;;;;;-2.67;64.08;96589.56;4987959;28;19951;-73
2022/03/03 03:54:41;;;;;;;;;;;;;;;-2.68;63.74;96593.91;5007595;28;19956;-74
2022/03/03 03:57:07;;;;;;;;;;;;;;;-2.70;64.20;96584.72;4997148;28;19999;-73
2022/03/03 03:59:33;;;;;;;;;;;;;;;-2.72;63.77;96582.25;5005939;28;20406;-73
2022/03/03 04:01:59;;;;;;;;;;;;;;;-2.73;63.55;96578.09;5007083;28;20397;-73
2022/03/03 04:04:24;;;;;;;;;;;;;;;-2.72;64.26;96576.31;5001332;28;20040;-74
2022/03/03 04:06:50;;;;;;;;;;;;;;;-2.75;64.49;96579.13;5007781;28;20055;-73
2022/03/03 04:09:16;;;;;;;;;;;;;;;-2.78;63.94;96580.22;5006797;28;20475;-73
2022/03/03 04:11:42;;;;;;;;;;;;;;;-2.81;63.80;96587.34;5011464;28;19994;-73
2022/03/03 04:14:08;;;;;;;;;;;;;;;-2.84;64.17;96580.75;5007824;28;19958;-73
2022/03/03 04:16:35;;;;;;;;;;;;;;;-2.83;63.82;96581.53;5005358;28;20007;-73
2022/03/03 04:19:01;;;;;;;;;;;;;;;-2.86;64.27;96588.59;5001235;28;19957;-73
2022/03/03 04:21:27;;;;;;;;;;;;;;;-2.87;64.45;96586.16;5006817;28;20050;-73
2022/03/03 04:23:52;;;;;;;;;;;;;;;-2.89;64.26;96582.91;5006588;28;19971;-73
2022/03/03 04:26:18;;;;;;;;;;;;;;;-2.91;64.52;96577.91;5008602;28;19962;-73
2022/03/03 04:28:44;;;;;;;;;;;;;;;-2.91;64.89;96587.34;5007159;28;19956;-73
2022/03/03 04:31:10;;;;;;;;;;;;;;;-2.93;64.65;96579.78;5005447;28;19961;-73
2022/03/03 04:33:37;;;;;;;;;;;;;;;-2.94;65.35;96585.88;5013005;28;20020;-73
2022/03/03 04:36:04;;;;;;;;;;;;;;;-2.94;64.70;96582.47;5005234;28;20428;-73
2022/03/03 04:38:29;;;;;;;;;;;;;;;-2.92;64.90;96580.56;5012169;28;20299;-73
2022/03/03 04:40:55;;;;;;;;;;;;;;;-2.91;64.67;96579.66;5004735;28;20045;-73
2022/03/03 04:43:21;;;;;;;;;;;;;;;-2.91;65.25;96583.03;5005532;28;19984;-73
2022/03/03 04:45:47;;;;;;;;;;;;;;;-2.90;65.42;96574.41;5008952;28;19985;-73
2022/03/03 04:48:13;;;;;;;;;;;;;;;-2.89;65.97;96570.06;5008751;28;20022;-73
2022/03/03 04:50:39;;;;;;;;;;;;;;;-2.91;65.85;96572.75;5001529;28;19963;-73
2022/03/03 04:53:05;;;;;;;;;;;;;;;-2.92;65.47;96572.88;5009775;28;19953;-73
2022/03/03 04:55:31;;;;;;;;;;;;;;;-2.93;65.78;96574.66;5010631;28;19952;-73
2022/03/03 04:57:56;;;;;;;;;;;;;;;-2.95;65.50;96568.84;5002520;28;19989;-73
2022/03/03 05:00:22;;;;;;;;;;;;;;;-2.97;65.30;96570.72;5002873;28;20353;-73
2022/03/03 05:02:48;;;;;;;;;;;;;;;-2.99;65.73;96564.09;5009829;28;19973;-73
2022/03/03 05:05:14;;;;;;;;;;;;;;;-3.04;65.66;96563.66;5004688;28;19949;-74
2022/03/03 05:07:40;;;;;;;;;;;;;;;-3.07;65.53;96564.72;5005506;28;20381;-73
2022/03/03 05:10:07;;;;;;;;;;;;;;;-3.09;65.33;96559.75;5002185;28;20318;-73
2022/03/03 05:12:33;;;;;;;;;;;;;;;-3.11;65.83;96561.63;5004174;28;19960;-75
2022/03/03 05:14:59;;;;;;;;;;;;;;;-3.12;65.56;96556.63;5005177;28;19954;-73
2022/03/03 05:17:25;;;;;;;;;;;;;;;-3.13;66.06;96555.81;5008636;28;20467;-73
2022/03/03 05:19:51;;;;;;;;;;;;;;;-3.14;65.60;96556.75;5006077;28;20461;-75
2022/03/03 05:22:17;;;;;;;;;;;;;;;-3.14;65.33;96554.19;5007432;28;20378;-73
2022/03/03 05:24:43;;;;;;;;;;;;;;;-3.13;65.77;96557.56;5005521;28;19959;-73
2022/03/03 05:27:08;;;;;;;;;;;;;;;-3.15;65.71;96554.31;5005766;28;19973;-73
2022/03/03 05:29:34;;;;;;;;;;;;;;;-3.18;65.88;96557.16;5001301;28;19973;-73
2022/03/03 05:32:00;;;;;;;;;;;;;;;-3.19;65.74;96548.66;5008961;28;20352;-73
2022/03/03 05:34:26;;;;;;;;;;;;;;;-3.21;66.06;96553.09;5007234;28;19952;-73
2022/03/03 05:36:52;;;;;;;;;;;;;;;-3.20;65.88;96552.13;5002875;28;20395;-73
2022/03/03 05:39:18;;;;;;;;;;;;;;;-3.22;65.96;96546.31;5000117;28;19963;-73
2022/03/03 05:41:45;;;;;;;;;;;;;;;-3.22;65.67;96553.22;5005377;28;20412;-73
2022/03/03 05:44:12;;;;;;;;;;;;;;;-3.23;66.42;96546.44;5006815;28;20008;-73
2022/03/03 05:46:38;;;;;;;;;;;;;;;-3.25;66.22;96546.59;5001036;28;19954;-73
2022/03/03 05:49:04;;;;;;;;;;;;;;;-3.26;66.38;96552.66;5000941;28;19961;-73
2022/03/03 05:51:31;;;;;;;;;;;;;;;-3.26;66.57;96550.88;5004994;28;19984;-73
2022/03/03 05:53:57;;;;;;;;;;;;;;;-3.27;66.24;96546.72;5005643;28;20410;-73
2022/03/03 05:56:23;;;;;;;;;;;;;;;-3.26;66.73;96543.19;5003644;28;20074;-73
2022/03/03 05:58:49;;;;;;;;;;;;;;;-3.25;66.13;96533.78;5000677;28;19955;-73
2022/03/03 06:01:16;;;;;;;;;;;;;;;-3.27;66.51;96533.09;5007314;28;19953;-73
2022/03/03 06:03:45;;;;;;;;;;;;;;;-3.26;66.45;96532.13;5006149;28;20416;-73
2022/03/03 06:06:15;;;;;;;;;;;;;;;-3.27;66.54;96541.59;4999064;28;19954;-73
2022/03/03 06:08:42;;;;;;;;;;;;;;;-3.25;66.09;96533.78;5003338;28;19966;-73
2022/03/03 06:11:17;;;;;;;;;;;;;;;-3.25;66.42;96528.66;4997898;28;20027;-73
2022/03/03 06:13:45;;;;;;;;;;;;;;;-3.23;66.08;96528.50;5004618;28;19959;-73
2022/03/03 06:16:11;;;;;;;;;;;;;;;-3.23;66.43;96533.63;5008497;28;19963;-73
2022/03/03 06:18:38;;;;;;;;;;;;;;;-3.21;66.04;96529.19;5001566;28;19953;-73
2022/03/03 06:21:04;;;;;;;;;;;;;;;-3.19;66.55;96530.69;5012702;28;20417;-73
2022/03/03 06:23:30;;;;;;;;;;;;;;;-3.14;66.10;96538.00;4995037;28;19984;-73
2022/03/03 06:26:00;;;;;;;;;;;;;;;-3.12;66.13;96529.22;5005572;28;20353;-73
2022/03/03 06:28:27;;;;;;;;;;;;;;;-3.09;66.35;96539.22;5002691;28;19975;-73
2022/03/03 06:30:52;;;;;;;;;;;;;;;-3.04;66.35;96535.44;5002795;28;19963;-73
2022/03/03 06:33:18;;;;;;;;;;;;;;;-3.04;66.08;96536.28;5002894;28;19965;-73
2022/03/03 06:35:44;;;;;;;;;;;;;;;-3.00;66.04;96540.19;5004558;28;19988;-73
2022/03/03 06:38:10;;;;;;;;;;;;;;;-2.66;66.51;96539.88;5000751;28;20292;-73
2022/03/03 06:40:36;;;;;;;;;;;;;;;-1.91;65.13;96546.09;4999941;28;20411;-73
2022/03/03 06:43:02;;;;;;;;;;;;;;;-1.07;63.28;96549.63;5004441;28;19967;-73
2022/03/03 06:45:29;;;;;;;;;;;;;;;-0.29;61.39;96542.25;5005021;28;19974;-73
2022/03/03 06:47:55;;;;;;;;;;;;;;;0.42;59.98;96537.13;5003524;28;19957;-74
2022/03/03 06:50:22;;;;;;;;;;;;;;;1.06;58.67;96529.88;5004172;28;19956;-73
2022/03/03 06:52:48;;;;;;;;;;;;;;;1.62;57.39;96521.47;5003380;28;20314;-73
2022/03/03 06:55:18;;;;;;;;;;;;;;;2.16;56.37;96513.25;5010442;28;19958;-74
2022/03/03 06:57:45;;;;;;;;;;;;;;;2.63;55.46;96517.66;5004849;28;19950;-74
2022/03/03 07:00:11;;;;;;;;;;;;;;;3.02;54.15;96506.53;4992556;28;20325;-74
2022/03/03 07:02:37;;;;;;;;;;;;;;;3.37;53.74;96507.00;4997398;28;20329;-73
2022/03/03 07:05:03;;;;;;;;;;;;;;;3.59;52.46;96509.78;5003466;28;20308;-74
2022/03/03 07:07:32;;;;;;;;;;;;;;;3.84;52.20;96507.81;5010830;28;20430;-73
2022/03/03 07:09:58;;;;;;;;;;;;;;;4.13;51.89;96499.31;5008602;28;19952;-74
2022/03/03 07:12:26;;;;;;;;;;;;;;;4.38;51.54;96499.91;5006024;28;19956;-74
2022/03/03 07:14:52;;;;;;;;;;;;;;;4.59;50.69;96501.00;5005297;28;19954;-74
2022/03/03 07:17:41;;;;;;;;;;;;;;;4.80;50.28;96495.88;5002915;28;19952;-74
2022/03/03 07:20:10;;;;;;;;;;;;;;;5.06;49.23;96490.22;4996252;28;19957;-74
2022/03/03 07:22:40;;;;;;;;;;;;;;;4.94;48.74;96491.69;5004181;28;19950;-74
2022/03/03 07:25:09;;;;;;;;;;;;;;;4.96;49.32;96497.50;5006796;28;19956;-74
2022/03/03 07:27:39;;;;;;;;;;;;;;;5.15;49.30;96490.13;4993565;28;20331;-74
2022/03/03 07:30:07;;;;;;;;;;;;;;;5.29;47.51;96481.47;5004540;28;20397;-75
2022/03/03 07:32:34;;;;;;;;;;;;;;;5.25;48.28;96481.03;4987910;28;19976;-74
2022/03/03 07:35:20;;;;;;;;;;;;;;;5.37;47.81;96473.56;5004143;28;19948;-74
2022/03/03 07:37:46;;;;;;;;;;;;;;;5.50;48.10;96472.88;5005491;28;19975;-76
2022/03/03 07:40:12;;;;;;;;;;;;;;;5.42;46.26;96479.03;5003986;28;19962;-75
2022/03/03 07:42:39;;;;;;;;;;;;;;;5.32;47.78;96464.72;5004193;28;20347;-74
2022/03/03 07:45:07;;;;;;;;;;;;;;;5.31;47.67;96458.69;5007661;28;19974;-75
2022/03/03 07:47:33;;;;;;;;;;;;;;;5.34;47.87;96460.13;5009631;28;19976;-74
2022/03/03 07:49:59;;;;;;;;;;;;;;;5.44;48.60;96460.66;5009330;28;19954;-74
2022/03/03 07:52:26;;;;;;;;;;;;;;;5.41;48.45;96471.41;5005034;28;20002;-74
2022/03/03 07:54:52;;;;;;;;;;;;;;;5.51;47.98;96458.91;5004383;28;19956;-74
2022/03/03 07:57:20;;;;;;;;;;;;;;;5.66;48.25;96464.84;5013454;28;19961;-74
2022/03/03 08:00:00;;;;;;;;;;;;;;;5.85;47.89;96463.41;4992120;28;19946;-75
2022/03/03 08:02:28;;;;;;;;;;;;;;;5.94;48.21;96465.88;5005473;28;20409;-75
2022/03/03 08:04:54;;;;;;;;;;;;;;;6.01;47.58;96454.56;5005908;28;19949;-75
2022/03/03 08:07:20;;;;;;;;;;;;;;;6.13;47.34;96461.84;5005535;28;19980;-75
2022/03/03 08:09:46;;;;;;;;;;;;;;;6.29;47.88;96466.78;5001917;28;20333;-75
2022/03/03 08:12:13;;;;;;;;;;;;;;;6.45;47.94;96465.69;5001232;28;19958;-74
2022/03/03 08:14:39;;;;;;;;;;;;;;;6.65;47.08;96466.59;5016065;28;19956;-75
2022/03/03 08:17:05;;;;;;;;;;;;;;;6.94;47.19;96469.16;5004051;28;19960;-75
2022/03/03 08:19:31;;;;;;;;;;;;;;;7.26;46.52;96462.44;5010398;28;19942;-74
2022/03/03 08:21:57;;;;;;;;;;;;;;;7.47;44.53;96469.31;5007122;28;19957;-74
2022/03/03 08:24:24;;;;;;;;;;;;;;;7.50;44.12;96463.72;5003499;28;19954;-75
2022/03/03 08:26:53;;;;;;;;;;;;;;;7.55;45.11;96457.91;5015521;28;20400;-75
2022/03/03 08:29:19;;;;;;;;;;;;;;;7.62;43.49;96456.91;5003041;28;19975;-76
2022/03/03 08:31:49;;;;;;;;;;;;;;;7.80;44.67;96458.94;5010733;28;19959;-75
2022/03/03 08:34:22;;;;;;;;;;;;;;;8.05;44.65;96447.91;5007508;28;19958;-75
2022/03/03 08:36:54;;;;;;;;;;;;;;;8.22;42.75;96443.06;5006743;28;19956;-75
2022/03/03 08:39:26;;;;;;;;;;;;;;;8.35;43.30;96440.44;5008942;28;19959;-74
2022/03/03 08:41:55;;;;;;;;;;;;;;;8.34;41.99;96439.63;5002682;28;19951;-76
2022/03/03 08:44:22;;;;;;;;;;;;;;;8.51;43.31;96442.63;5014597;28;19981;-73
2022/03/03 08:46:48;;;;;;;;;;;;;;;8.57;41.96;96435.81;5015312;28;19954;-76
2022/03/03 08:49:14;;;;;;;;;;;;;;;8.67;41.16;96437.97;5003226;28;20072;-76
2022/03/03 08:51:40;;;;;;;;;;;;;;;8.61;42.40;96439.63;4984297;28;20015;-75
2022/03/03 08:54:06;;;;;;;;;;;;;;;8.57;42.29;96450.66;5004044;28;19960;-76
2022/03/03 08:56:32;;;;;;;;;;;;;;;8.46;43.15;96445.09;5002582;28;20351;-76
2022/03/03 08:58:58;;;;;;;;;;;;;;;8.16;42.61;96452.50;5005261;28;19956;-76
2022/03/03 09:01:24;;;;;;;;;;;;;;;8.01;43.90;96450.09;5000141;28;19948;-75
2022/03/03 09:03:50;;;;;;;;;;;;;;;8.04;43.89;96447.09;5004235;28;19953;-75
2022/03/03 09:06:17;;;;;;;;;;;;;;;8.06;44.13;96445.09;5003226;28;19956;-75
2022/03/03 09:08:43;;;;;;;;;;;;;;;8.03;43.16;96448.09;4989362;28;19968;-75
2022/03/03 09:11:09;;;;;;;;;;;;;;;8.06;44.11;96439.03;5010272;28;19956;-75
2022/03/03 09:13:35;;;;;;;;;;;;;;;8.09;43.76;96444.69;5010980;28;19961;-75
2022/03/03 09:16:01;;;;;;;;;;;;;;;8.06;43.93;96434.66;5004860;28;19951;-75
2022/03/03 09:18:27;;;;;;;;;;;;;;;7.77;44.10;96448.06;5007859;28;19999;-75
2022/03/03 09:20:53;;;;;;;;;;;;;;;7.61;43.65;96447.47;5009406;28;19989;-75
2022/03/03 09:23:19;;;;;;;;;;;;;;;7.50;44.84;96448.88;5002286;28;20424;-75
2022/03/03 09:25:44;;;;;;;;;;;;;;;7.45;44.96;96447.84;5001792;28;19956;-75
2022/03/03 09:28:10;;;;;;;;;;;;;;;7.32;45.25;96446.81;5009149;28;20001;-75
2022/03/03 09:30:37;;;;;;;;;;;;;;;7.30;45.69;96446.19;5008747;28;20039;-75
2022/03/03 09:33:03;;;;;;;;;;;;;;;7.37;45.99;96443.63;5003376;28;19947;-75
2022/03/03 09:35:29;;;;;;;;;;;;;;;7.43;44.73;96444.63;5004288;28;19949;-75
2022/03/03 09:37:55;;;;;;;;;;;;;;;7.56;44.86;96441.22;5005645;28;20455;-76
2022/03/03 09:40:21;;;;;;;;;;;;;;;7.76;44.29;96446.50;5004455;28;19959;-75
2022/03/03 09:43:06;;;;;;;;;;;;;;;7.83;45.33;96442.88;5003550;28;20003;-75
2022/03/03 09:45:32;;;;;;;;;;;;;;;7.88;44.91;96434.44;4995438;28;19966;-75
2022/03/03 09:48:00;;;;;;;;;;;;;;;7.85;45.12;96437.44;4995034;28;19974;-75
2022/03/03 09:50:27;;;;;;;;;;;;;;;7.83;44.55;96429.84;4995191;28;19964;-75
2022/03/03 09:52:53;;;;;;;;;;;;;;;7.87;44.20;96427.59;4995310;28;19965;-75
2022/03/03 09:55:20;;;;;;;;;;;;;;;7.96;45.50;96433.41;4994766;28;19954;-75
2022/03/03 09:57:47;;;;;;;;;;;;;;;8.16;45.03;96436.84;4994892;28;19954;-75
2022/03/03 10:00:13;;;;;;;;;;;;;;;8.28;44.18;96430.00;4993485;28;19953;-75
2022/03/03 10:02:57;;;;;;;;;;;;;;;8.35;44.16;96419.53;4994833;28;20431;-76
2022/03/03 10:05:42;;;;;;;;;;;;;;;8.49;44.53;96423.75;4984927;28;20034;-75
2022/03/03 10:08:09;;;;;;;;;;;;;;;8.47;43.14;96420.53;4994388;28;19961;-76
2022/03/03 10:10:36;;;;;;;;;;;;;;;8.43;44.63;96432.41;4994647;28;19956;-75
2022/03/03 10:13:03;;;;;;;;;;;;;;;8.40;43.60;96431.97;4994613;28;19961;-76
2022/03/03 10:15:30;;;;;;;;;;;;;;;8.48;44.69;96426.56;4994638;28;20351;-76
2022/03/03 10:17:57;;;;;;;;;;;;;;;8.47;45.31;96422.34;4994386;28;19951;-75
2022/03/03 10:20:24;;;;;;;;;;;;;;;8.47;45.18;96423.16;4994791;28;19965;-75
2022/03/03 10:23:00;;;;;;;;;;;;;;;8.61;44.45;96415.25;4994315;28;19949;-75
2022/03/03 10:25:28;;;;;;;;;;;;;;;8.85;44.85;96416.41;4994648;28;19949;-76
2022/03/03 10:27:54;;;;;;;;;;;;;;;9.01;43.49;96421.16;4994356;28;19971;-76
2022/03/03 10:30:20;;;;;;;;;;;;;;;9.06;43.37;96420.53;4994378;28;19993;-75
2022/03/03 10:32:47;;;;;;;;;;;;;;;9.03;44.79;96413.91;4994179;28;20030;-76
2022/03/03 10:35:18;;;;;;;;;;;;;;;9.16;44.44;96418.28;4994070;28;19954;-76
2022/03/03 10:37:45;;;;;;;;;;;;;;;9.34;43.80;96428.84;4994359;28;19952;-77
2022/03/03 10:40:15;;;;;;;;;;;;;;;9.47;41.67;96417.50;4994296;28;20317;-75
2022/03/03 10:42:42;;;;;;;;;;;;;;;9.55;41.23;96417.25;4994617;28;19957;-75
2022/03/03 10:45:08;;;;;;;;;;;;;;;9.60;40.83;96415.81;5001774;28;20342;-75
2022/03/03 10:47:34;;;;;;;;;;;;;;;9.60;40.71;96421.84;5007554;28;20334;-76
2022/03/03 10:50:00;;;;;;;;;;;;;;;9.58;41.41;96415.22;5005285;28;19961;-75
2022/03/03 10:52:28;;;;;;;;;;;;;;;9.53;40.59;96411.41;5003531;28;20399;-76
2022/03/03 10:54:55;;;;;;;;;;;;;;;9.50;38.37;96411.81;5001572;28;19955;-76
2022/03/03 10:57:33;;;;;;;;;;;;;;;9.51;41.82;96408.22;5005512;28;19947;-76
2022/03/03 11:00:00;;;;;;;;;;;;;;;9.59;40.02;96412.38;5006044;28;19950;-76
2022/03/03 11:02:27;;;;;;;;;;;;;;;9.69;41.06;96417.16;5006757;28;19965;-76
2022/03/03 11:04:54;;;;;;;;;;;;;;;9.79;40.00;96414.84;5002540;28;19950;-76
2022/03/03 11:07:20;;;;;;;;;;;;;;;9.86;39.92;96414.81;5001564;28;20417;-76
2022/03/03 11:09:47;;;;;;;;;;;;;;;9.88;38.77;96415.38;5001488;28;19965;-77
2022/03/03 11:12:13;;;;;;;;;;;;;;;9.98;39.70;96404.44;4999048;28;20026;-76
2022/03/03 11:14:39;;;;;;;;;;;;;;;10.14;40.01;96399.44;4985785;28;19956;-76
2022/03/03 11:17:06;;;;;;;;;;;;;;;10.26;37.68;96396.09;5010038;28;19961;-76
2022/03/03 11:19:32;;;;;;;;;;;;;;;10.35;39.59;96393.03;5010971;28;20417;-77
2022/03/03 11:21:58;;;;;;;;;;;;;;;10.49;37.76;96387.63;5010299;28;19998;-76
2022/03/03 11:24:24;;;;;;;;;;;;;;;10.64;37.80;96393.31;5016372;28;20414;-76
2022/03/03 11:26:51;;;;;;;;;;;;;;;10.84;39.71;96385.22;5007441;28;19951;-76
2022/03/03 11:29:18;;;;;;;;;;;;;;;10.92;36.09;96381.50;5007424;28;19970;-76
2022/03/03 11:31:45;;;;;;;;;;;;;;;10.89;35.72;96376.69;4997776;28;19961;-76
2022/03/03 11:34:30;;;;;;;;;;;;;;;10.94;37.09;96385.50;5001771;28;19959;-77
2022/03/03 11:36:59;;;;;;;;;;;;;;;10.93;36.32;96377.84;4984081;28;19972;-79
2022/03/03 11:39:37;;;;;;;;;;;;;;;11.00;35.86;96375.13;5011249;28;20308;-77
2022/03/03 11:42:21;;;;;;;;;;;;;;;11.21;34.97;96374.63;5007515;28;19956;-77
2022/03/03 11:44:49;;;;;;;;;;;;;;;11.40;33.71;96367.50;5004442;28;19966;-77
2022/03/03 11:47:19;;;;;;;;;;;;;;;11.53;34.69;96362.06;5007520;28;19965;-77
2022/03/03 11:50:03;;;;;;;;;;;;;;;11.65;35.93;96358.63;5003252;28;19961;-77
2022/03/03 11:52:29;;;;;;;;;;;;;;;11.71;35.27;96355.13;5007468;28;20502;-77
2022/03/03 11:55:00;;;;;;;;;;;;;;;11.79;30.91;96352.16;5007344;28;19953;-77
2022/03/03 11:57:32;;;;;;;;;;;;;;;11.87;32.72;96336.06;5016706;28;19957;-77
2022/03/03 12:00:00;;;;;;;;;;;;;;;11.86;31.20;96331.00;5010826;28;20398;-77
2022/03/03 12:02:32;;;;;;;;;;;;;;;11.95;33.22;96332.31;5006731;28;19956;-77
2022/03/03 12:05:17;;;;;;;;;;;;;;;12.03;33.88;96328.53;5009948;28;19951;-78
2022/03/03 12:07:45;;;;;;;;;;;;;;;12.10;33.13;96321.34;5006431;28;19960;-77
2022/03/03 12:10:13;;;;;;;;;;;;;;;12.23;31.95;96313.19;4997216;28;19980;-77
2022/03/03 12:12:38;;;;;;;;;;;;;;;12.41;34.13;96309.63;4991466;28;19955;-77
2022/03/03 12:15:04;;;;;;;;;;;;;;;12.53;31.10;96299.06;5002340;28;20478;-78
2022/03/03 12:17:54;;;;;;;;;;;;;;;12.58;32.66;96302.59;5001700;28;19971;-77
2022/03/03 12:20:40;;;;;;;;;;;;;;;12.54;34.51;96300.69;4995842;28;19971;-77
2022/03/03 12:23:10;;;;;;;;;;;;;;;12.47;31.34;96303.41;5006954;28;19946;-77
2022/03/03 12:26:06;;;;;;;;;;;;;;;12.46;32.04;96299.19;5001129;28;19952;-78
2022/03/03 12:28:34;;;;;;;;;;;;;;;12.41;31.11;96296.47;4998849;28;19967;-77
2022/03/03 12:31:01;;;;;;;;;;;;;;;12.28;31.91;96294.09;5002794;28;19950;-77
2022/03/03 12:33:28;;;;;;;;;;;;;;;12.18;31.58;96292.88;5005656;28;19970;-77
2022/03/03 12:35:59;;;;;;;;;;;;;;;12.20;32.47;96297.91;5009528;28;19948;-77
2022/03/03 12:38:25;;;;;;;;;;;;;;;12.23;30.22;96288.75;5005982;28;19950;-77
2022/03/03 12:40:52;;;;;;;;;;;;;;;12.13;30.75;96294.56;5000951;28;20295;-77
2022/03/03 12:43:19;;;;;;;;;;;;;;;12.08;30.26;96292.66;5013564;28;20411;-77
2022/03/03 12:45:46;;;;;;;;;;;;;;;12.05;31.20;96290.47;5007074;28;19962;-77
2022/03/03 12:48:12;;;;;;;;;;;;;;;11.99;30.24;96291.41;5006166;28;19949;-77
2022/03/03 12:50:40;;;;;;;;;;;;;;;12.01;30.31;96286.72;5007933;28;19962;-77